Time;durP1;ratioP1;P1;durP2;ratioP2;P2;SDS_P1;SDS_P2;PMS_P1;PMS_P2;Temp;Humidity;BMP_temperature;BMP_pressure;BME280_temperature;BME280_humidity;BME280_pressure;Samples;Min_cycle;Max_cycle;Signal;HPM_P1;HPM_P2
2022/01/04 00:00:43;;;;;;;;;19.50;18.50;;;;;11.66;78.21;100007.91;4997549;28;45812;-75
2022/01/04 00:03:10;;;;;;;;;9.67;9.67;;;;;11.67;78.49;99998.19;4999790;28;45433;-75
2022/01/04 00:05:36;;;;;;;;;9.50;9.50;;;;;11.76;79.01;100011.47;4998613;28;45317;-76
2022/01/04 00:08:02;;;;;;;;;8.00;6.33;;;;;11.75;78.57;100007.06;4998478;28;45455;-76
2022/01/04 00:10:29;;;;;;;;;9.67;8.67;;;;;11.63;78.09;99992.00;4999452;28;47233;-76
2022/01/04 00:15:42;;;;;;;;;11.00;9.33;;;;;11.67;78.62;99974.38;4998058;28;45508;-76
2022/01/04 00:18:07;;;;;;;;;8.00;8.00;;;;;11.67;78.26;99963.78;4995380;28;45611;-76
2022/01/04 00:20:32;;;;;;;;;18.00;12.50;;;;;11.46;78.62;99925.72;4998485;28;45308;-75
2022/01/04 00:22:58;;;;;;;;;11.00;11.00;;;;;11.48;77.06;99915.13;4996592;28;45427;-75
2022/01/04 00:25:23;;;;;;;;;9.00;9.00;;;;;11.69;77.99;99956.75;4999023;28;45318;-75
2022/01/04 00:27:49;;;;;;;;;12.00;11.00;;;;;11.72;77.23;99962.94;4999647;28;45613;-75
2022/01/04 00:30:14;;;;;;;;;7.67;5.33;;;;;11.61;77.89;99941.69;4998254;28;47143;-75
2022/01/04 00:32:39;;;;;;;;;14.25;13.00;;;;;11.30;77.35;99884.16;4997965;28;45396;-76
2022/01/04 00:35:05;;;;;;;;;17.75;15.75;;;;;11.28;77.59;99884.13;4999967;28;45210;-75
2022/01/04 00:37:30;;;;;;;;;56.75;44.75;;;;;11.37;77.42;99904.47;4999397;28;46368;-76
2022/01/04 00:39:57;;;;;;;;;5.00;5.00;;;;;11.47;77.77;99921.31;4991435;28;47923;-76
2022/01/04 00:42:24;;;;;;;;;6.00;6.00;;;;;11.30;77.57;99892.97;4995692;28;45392;-75
2022/01/04 00:44:49;;;;;;;;;5.00;4.00;;;;;11.04;77.85;99853.13;5001221;28;45294;-76
2022/01/04 00:47:15;;;;;;;;;8.50;6.75;;;;;11.43;78.61;99915.13;5005161;28;46145;-75
2022/01/04 00:49:41;;;;;;;;;18.25;17.00;;;;;11.35;77.93;99890.38;5000743;28;45432;-75
2022/01/04 00:52:07;;;;;;;;;8.00;8.00;;;;;11.31;78.35;99889.44;4993966;28;45171;-75
2022/01/04 00:54:34;;;;;;;;;8.00;6.75;;;;;11.20;78.19;99867.31;5001398;28;45576;-75
2022/01/04 00:56:59;;;;;;;;;5.67;4.33;;;;;11.19;77.62;99868.19;4994533;28;45527;-76
2022/01/04 00:59:24;;;;;;;;;6.33;6.00;;;;;11.06;78.05;99851.38;5000839;28;46536;-75
2022/01/04 01:01:50;;;;;;;;;6.00;6.00;;;;;11.03;78.87;99843.41;4994410;28;45274;-75
2022/01/04 01:04:15;;;;;;;;;6.00;4.67;;;;;11.26;77.39;99879.69;5000911;28;45219;-75
2022/01/04 01:06:41;;;;;;;;;4.00;2.00;;;;;11.18;78.17;99867.31;4994357;28;45519;-75
2022/01/04 01:09:07;;;;;;;;;2.00;2.00;;;;;11.09;77.23;99854.06;5000897;28;45900;-75
2022/01/04 01:11:32;;;;;;;;;1.33;1.33;;;;;10.96;78.33;99855.72;4993111;28;45493;-75
2022/01/04 01:13:57;;;;;;;;;1.33;1.33;;;;;10.91;78.68;99830.97;5016124;28;45357;-76
2022/01/04 01:16:23;;;;;;;;;1.00;1.00;;;;;10.34;77.85;99723.97;5003302;28;46003;-76
2022/01/04 01:18:49;;;;;;;;;2.00;1.00;;;;;10.87;77.97;99815.09;4995424;28;47992;-75
2022/01/04 01:21:14;;;;;;;;;1.00;1.00;;;;;11.00;77.02;99843.38;4996081;28;45451;-76
2022/01/04 01:23:40;;;;;;;;;3.67;2.00;;;;;10.89;77.50;99832.72;4998151;28;45451;-75
2022/01/04 01:26:08;;;;;;;;;3.67;1.00;;;;;10.61;77.91;99788.47;4997221;28;45301;-75
2022/01/04 01:28:35;;;;;;;;;1.00;1.00;;;;;10.74;77.53;99827.34;4998849;28;45350;-75
2022/01/04 01:31:00;;;;;;;;;3.00;2.00;;;;;10.79;78.15;99835.31;5013382;28;46216;-76
2022/01/04 01:33:27;;;;;;;;;1.00;1.00;;;;;10.62;77.59;99800.81;5015028;28;45438;-75
2022/01/04 01:35:54;;;;;;;;;0.67;0.67;;;;;10.67;78.29;99804.34;4994376;28;45466;-75
2022/01/04 01:38:20;;;;;;;;;1.00;1.00;;;;;10.79;78.05;99817.69;4992007;28;46299;-75
2022/01/04 01:40:46;;;;;;;;;1.33;1.00;;;;;10.46;78.44;99755.75;4996207;28;45500;-75
2022/01/04 01:43:12;;;;;;;;;0.00;0.00;;;;;10.63;77.67;99782.31;4998713;28;45242;-75
2022/01/04 01:45:38;;;;;;;;;2.00;2.00;;;;;10.29;77.94;99720.41;4996181;28;46120;-75
2022/01/04 01:48:05;;;;;;;;;1.00;1.00;;;;;10.60;77.19;99779.66;4998674;28;47941;-75
2022/01/04 01:50:31;;;;;;;;;2.00;0.33;;;;;10.34;78.48;99731.91;4997629;28;45241;-75
2022/01/04 01:52:56;;;;;;;;;0.67;0.00;;;;;10.39;77.98;99740.75;4996470;28;45519;-76
2022/01/04 01:55:23;;;;;;;;;0.00;0.00;;;;;10.23;77.63;99717.69;4997258;28;45345;-75
2022/01/04 01:57:50;;;;;;;;;0.00;0.00;;;;;10.37;77.49;99752.19;4992801;28;47315;-75
2022/01/04 02:00:18;;;;;;;;;0.00;0.00;;;;;10.21;78.98;99730.00;4997152;28;45321;-75
2022/01/04 02:02:43;;;;;;;;;0.00;0.00;;;;;10.17;77.76;99728.22;4996331;28;45226;-76
2022/01/04 02:05:09;;;;;;;;;0.00;0.00;;;;;10.36;77.58;99777.69;4998140;28;45205;-75
2022/01/04 02:07:37;;;;;;;;;0.00;0.00;;;;;10.25;77.95;99756.44;4995226;28;46347;-75
2022/01/04 02:10:05;;;;;;;;;2.00;0.00;;;;;10.37;79.44;99781.22;4998909;28;45320;-75
2022/01/04 02:12:34;;;;;;;;;0.00;0.00;;;;;10.36;77.61;99751.25;4991258;28;45256;-75
2022/01/04 02:15:00;;;;;;;;;1.00;1.00;;;;;10.06;78.16;99712.25;4998920;28;45589;-75
2022/01/04 02:17:26;;;;;;;;;2.00;2.00;;;;;10.27;79.08;99741.50;4993929;28;45589;-75
2022/01/04 02:19:54;;;;;;;;;2.00;2.00;;;;;10.30;78.83;99740.66;5014110;28;45388;-75
2022/01/04 02:22:20;;;;;;;;;2.00;2.00;;;;;10.12;79.04;99714.97;4993087;28;45485;-75
2022/01/04 02:24:46;;;;;;;;;2.00;2.00;;;;;10.30;79.06;99741.53;4998261;28;46058;-75
2022/01/04 02:27:13;;;;;;;;;0.00;0.00;;;;;10.32;78.20;99733.63;4995856;28;45626;-76
2022/01/04 02:29:39;;;;;;;;;2.00;0.00;;;;;10.21;78.56;99714.16;4985688;28;46375;-75
2022/01/04 02:32:04;;;;;;;;;0.00;0.00;;;;;10.21;78.58;99712.38;4987812;28;45248;-75
2022/01/04 02:34:30;;;;;;;;;0.00;0.00;;;;;10.12;78.48;99688.56;4986277;28;45203;-76
2022/01/04 02:36:55;;;;;;;;;0.00;0.00;;;;;10.15;78.55;99695.63;4985792;28;45405;-76
2022/01/04 02:39:20;;;;;;;;;0.00;0.00;;;;;10.17;77.52;99707.09;4999570;28;45428;-76
2022/01/04 02:41:46;;;;;;;;;0.00;0.00;;;;;9.98;78.79;99669.06;4997925;28;45377;-75
2022/01/04 02:44:11;;;;;;;;;0.00;0.00;;;;;9.85;78.32;99646.94;4998035;28;47537;-75
2022/01/04 02:46:36;;;;;;;;;0.00;0.00;;;;;9.73;78.34;99633.66;4991489;28;45401;-76
2022/01/04 02:49:02;;;;;;;;;0.00;0.00;;;;;9.75;78.96;99626.66;4999180;28;45266;-75
2022/01/04 02:51:27;;;;;;;;;0.00;0.00;;;;;9.85;78.19;99642.56;4993127;28;45531;-75
2022/01/04 02:53:52;;;;;;;;;0.00;0.00;;;;;9.72;78.03;99627.50;4997875;28;46259;-76
2022/01/04 02:56:18;;;;;;;;;0.00;0.00;;;;;9.91;78.40;99652.28;4992913;28;45432;-76
2022/01/04 02:58:43;;;;;;;;;0.00;0.00;;;;;9.60;78.78;99596.59;4999321;28;45369;-77
2022/01/04 03:01:09;;;;;;;;;0.00;0.00;;;;;9.71;78.65;99622.19;4993260;28;45711;-77
2022/01/04 03:03:34;;;;;;;;;0.00;0.00;;;;;9.62;78.77;99608.06;4997439;28;45590;-77
2022/01/04 03:05:59;;;;;;;;;0.00;0.00;;;;;9.85;79.14;99652.22;4991784;28;47210;-77
2022/01/04 03:08:25;;;;;;;;;0.00;0.00;;;;;9.51;78.46;99587.72;4999128;28;45392;-77
2022/01/04 03:10:50;;;;;;;;;0.00;0.00;;;;;9.80;79.16;99646.03;4995650;28;45314;-77
2022/01/04 03:13:16;;;;;;;;;0.00;0.00;;;;;9.56;79.02;99592.19;4995063;28;45560;-78
2022/01/04 03:15:45;;;;;;;;;0.00;0.00;;;;;9.71;77.93;99614.28;4998430;28;46087;-77
2022/01/04 03:18:11;;;;;;;;;0.00;0.00;;;;;9.84;79.23;99629.38;4999028;28;45261;-76
2022/01/04 03:20:37;;;;;;;;;0.00;0.00;;;;;9.53;78.69;99564.91;4999887;28;45329;-75
2022/01/04 03:23:03;;;;;;;;;0.00;0.00;;;;;9.73;79.33;99602.00;4999950;28;45547;-75
2022/01/04 03:25:28;;;;;;;;;0.00;0.00;;;;;9.69;79.79;99590.53;5000657;28;45421;-75
2022/01/04 03:27:53;;;;;;;;;0.25;0.00;;;;;9.60;78.86;99572.84;5001436;28;45343;-76
2022/01/04 03:30:19;;;;;;;;;0.00;0.00;;;;;9.68;79.42;99579.97;5000881;28;44939;-76
2022/01/04 03:32:45;;;;;;;;;0.00;0.00;;;;;9.88;78.24;99614.44;4994078;28;45591;-76
2022/01/04 03:35:10;;;;;;;;;0.00;0.00;;;;;9.74;77.91;99586.16;5000502;28;46462;-75
2022/01/04 03:37:36;;;;;;;;;0.00;0.00;;;;;9.80;78.22;99612.63;4996404;28;45746;-75
2022/01/04 03:40:03;;;;;;;;;0.00;0.00;;;;;9.68;78.78;99582.59;5000431;28;45306;-75
2022/01/04 03:42:28;;;;;;;;;0.00;0.00;;;;;9.58;78.19;99552.63;5012390;28;45928;-75
2022/01/04 03:44:54;;;;;;;;;0.00;0.00;;;;;9.51;79.26;99546.41;5000740;28;48423;-75
2022/01/04 03:47:19;;;;;;;;;0.00;0.00;;;;;9.65;79.63;99580.81;5005952;28;45418;-75
2022/01/04 03:49:45;;;;;;;;;0.00;0.00;;;;;9.68;78.93;99582.59;5000648;28;45305;-75
2022/01/04 03:52:10;;;;;;;;;0.00;0.00;;;;;9.83;79.03;99604.72;4994122;28;45266;-75
2022/01/04 03:54:36;;;;;;;;;0.00;0.00;;;;;9.91;79.80;99602.13;5001960;28;45293;-75
2022/01/04 03:57:01;;;;;;;;;1.00;0.00;;;;;9.71;79.75;99572.94;4994145;28;45317;-75
2022/01/04 03:59:26;;;;;;;;;0.00;0.00;;;;;9.61;79.51;99560.56;5002013;28;45330;-75
2022/01/04 04:01:52;;;;;;;;;0.00;0.00;;;;;9.68;79.05;99558.84;4995435;28;45610;-75
2022/01/04 04:04:19;;;;;;;;;1.00;0.00;;;;;9.75;79.31;99571.25;5001482;28;46486;-75
2022/01/04 04:06:45;;;;;;;;;1.00;0.00;;;;;9.91;78.85;99594.22;4995343;28;45403;-76
2022/01/04 04:09:10;;;;;;;;;0.00;0.00;;;;;9.73;78.76;99563.28;5001914;28;45385;-75
2022/01/04 04:11:36;;;;;;;;;0.00;0.00;;;;;9.91;78.99;99596.84;4991202;28;46003;-76
2022/01/04 04:14:01;;;;;;;;;0.00;0.00;;;;;9.76;79.04;99575.63;4997653;28;45438;-75
2022/01/04 04:16:26;;;;;;;;;0.00;0.00;;;;;9.78;79.61;99581.81;4996638;28;45233;-77
2022/01/04 04:18:52;;;;;;;;;0.00;0.00;;;;;9.54;79.93;99535.00;4998460;28;45226;-76
2022/01/04 04:21:17;;;;;;;;;0.00;0.00;;;;;9.79;79.31;99583.56;5002500;28;47186;-77
2022/01/04 04:23:43;;;;;;;;;0.00;0.00;;;;;9.58;78.92;99550.00;4998171;28;47709;-76
2022/01/04 04:26:08;;;;;;;;;0.00;0.00;;;;;9.91;78.29;99607.41;5001629;28;45457;-76
2022/01/04 04:28:34;;;;;;;;;0.00;0.00;;;;;9.63;79.35;99548.25;5000470;28;45328;-76
2022/01/04 04:31:01;;;;;;;;;0.00;0.00;;;;;9.72;78.77;99565.91;5014817;28;45847;-76
2022/01/04 04:33:27;;;;;;;;;0.00;0.00;;;;;9.74;78.96;99588.81;5001217;28;46332;-76
2022/01/04 04:35:52;;;;;;;;;0.00;0.00;;;;;9.82;78.73;99609.97;4995959;28;45346;-76
2022/01/04 04:38:18;;;;;;;;;0.00;0.00;;;;;9.38;78.53;99532.25;4988794;28;45485;-76
2022/01/04 04:40:44;;;;;;;;;0.00;0.00;;;;;9.40;78.54;99541.03;5012082;28;46249;-75
2022/01/04 04:43:09;;;;;;;;;0.00;0.00;;;;;9.57;78.67;99572.84;4999660;28;47165;-75
2022/01/04 04:45:35;;;;;;;;;0.00;0.00;;;;;9.40;78.81;99548.06;4998792;28;45500;-75
2022/01/04 04:48:00;;;;;;;;;0.00;0.00;;;;;9.73;78.57;99620.47;5012903;28;45357;-75
2022/01/04 04:50:25;;;;;;;;;0.00;0.00;;;;;9.53;79.04;99578.09;4997789;28;46244;-75
2022/01/04 04:52:51;;;;;;;;;0.00;0.00;;;;;9.51;78.98;99588.59;4996735;28;45360;-75
2022/01/04 04:55:16;;;;;;;;;0.00;0.00;;;;;9.65;79.61;99615.13;4999257;28;45231;-75
2022/01/04 04:57:42;;;;;;;;;0.00;0.00;;;;;9.61;77.98;99610.69;4996741;28;45360;-76
2022/01/04 05:00:09;;;;;;;;;0.00;0.00;;;;;9.53;79.09;99613.25;5000177;28;45243;-76
2022/01/04 05:02:34;;;;;;;;;1.00;0.00;;;;;9.48;79.20;99600.91;5008376;28;47313;-76
2022/01/04 05:05:00;;;;;;;;;0.00;0.00;;;;;9.49;79.13;99608.81;4998095;28;46372;-76
2022/01/04 05:07:26;;;;;;;;;0.00;0.00;;;;;9.56;78.84;99617.69;4999326;28;45444;-77
2022/01/04 05:09:51;;;;;;;;;0.00;0.00;;;;;9.50;78.35;99615.88;4999632;28;46617;-77
2022/01/04 05:12:17;;;;;;;;;0.00;0.00;;;;;9.55;78.61;99624.72;4993924;28;45411;-77
2022/01/04 05:14:46;;;;;;;;;0.00;0.00;;;;;9.49;78.47;99615.84;5013793;28;45321;-76
2022/01/04 05:17:12;;;;;;;;;0.00;0.00;;;;;9.62;78.58;99641.47;4996071;28;45365;-76
2022/01/04 05:19:38;;;;;;;;;0.00;0.00;;;;;9.49;78.99;99629.91;4998607;28;45433;-76
2022/01/04 05:22:04;;;;;;;;;0.00;0.00;;;;;9.36;78.85;99593.75;4997372;28;45497;-75
2022/01/04 05:24:29;;;;;;;;;0.00;0.00;;;;;9.45;79.02;99619.34;5014292;28;46178;-76
2022/01/04 05:26:55;;;;;;;;;0.50;0.00;;;;;9.50;78.21;99630.81;4999028;28;45334;-77
2022/01/04 05:29:20;;;;;;;;;0.00;0.00;;;;;9.49;78.60;99631.66;4999051;28;47490;-77
2022/01/04 05:31:45;;;;;;;;;0.00;0.00;;;;;8.87;79.19;99533.50;4992873;28;45190;-77
2022/01/04 05:34:11;;;;;;;;;0.00;0.00;;;;;9.22;78.55;99584.81;4998482;28;45293;-77
2022/01/04 05:36:36;;;;;;;;;0.00;0.00;;;;;9.46;79.05;99626.38;4988590;28;45471;-76
2022/01/04 05:39:03;;;;;;;;;0.00;0.00;;;;;9.57;78.73;99645.81;4997888;28;45390;-75
2022/01/04 05:41:28;;;;;;;;;0.00;0.00;;;;;9.25;78.15;99580.47;4995175;28;45450;-76
2022/01/04 05:43:54;;;;;;;;;0.00;0.00;;;;;9.30;78.62;99591.03;5000300;28;45524;-75
2022/01/04 05:46:19;;;;;;;;;0.00;0.00;;;;;9.57;78.67;99630.88;4995077;28;45519;-75
2022/01/04 05:48:45;;;;;;;;;0.25;0.25;;;;;9.11;78.97;99539.91;4997667;28;45388;-76
2022/01/04 05:51:10;;;;;;;;;0.50;0.50;;;;;9.30;78.52;99578.75;4992648;28;48210;-75
2022/01/04 05:53:35;;;;;;;;;0.00;0.00;;;;;9.41;78.33;99611.41;5000210;28;45309;-77
2022/01/04 05:56:01;;;;;;;;;0.50;0.50;;;;;9.59;78.03;99628.25;4994396;28;45449;-76
2022/01/04 05:58:26;;;;;;;;;1.00;0.00;;;;;9.57;77.91;99630.00;4999900;28;45340;-76
2022/01/04 06:00:52;;;;;;;;;0.00;0.00;;;;;9.46;77.64;99600.88;4995483;28;46083;-76
2022/01/04 06:03:17;;;;;;;;;0.00;0.00;;;;;9.39;77.79;99589.38;4998194;28;45464;-77
2022/01/04 06:05:42;;;;;;;;;0.00;0.00;;;;;9.56;78.22;99612.41;5012019;28;45520;-77
2022/01/04 06:08:08;;;;;;;;;0.00;0.00;;;;;9.26;78.27;99569.03;4997157;28;45404;-76
2022/01/04 06:10:39;;;;;;;;;1.00;1.00;;;;;9.21;77.48;99570.72;4997761;28;46679;-76
2022/01/04 06:15:29;;;;;;;;;0.25;0.25;;;;;9.30;78.27;99578.75;4998033;28;45863;-76
2022/01/04 06:17:55;;;;;;;;;1.25;1.00;;;;;9.41;78.13;99607.88;4994572;28;45390;-76
2022/01/04 06:20:22;;;;;;;;;3.00;1.50;;;;;9.22;78.40;99585.72;4997626;28;45278;-76
2022/01/04 06:22:48;;;;;;;;;2.00;2.00;;;;;9.08;77.75;99568.88;4997357;28;45315;-76
2022/01/04 06:25:17;;;;;;;;;2.25;1.50;;;;;9.46;78.02;99644.81;4998248;28;45246;-76
2022/01/04 06:27:46;;;;;;;;;0.00;0.00;;;;;9.40;78.08;99653.56;5029024;28;46010;-76
2022/01/04 06:30:16;;;;;;;;;2.25;2.25;;;;;9.42;77.99;99678.22;4994005;28;45319;-76
2022/01/04 06:32:46;;;;;;;;;5.00;5.00;;;;;9.21;78.61;99635.78;4997979;28;45384;-75
2022/01/04 06:35:13;;;;;;;;;1.00;1.00;;;;;9.28;78.07;99649.03;4997768;28;45305;-75
2022/01/04 06:37:41;;;;;;;;;4.50;3.75;;;;;9.32;78.57;99656.09;4992909;28;45238;-74
2022/01/04 06:40:07;;;;;;;;;4.00;3.00;;;;;9.16;77.69;99631.34;4998401;28;46064;-75
2022/01/04 06:42:33;;;;;;;;;1.75;0.25;;;;;9.22;78.40;99648.09;4995951;28;45852;-76
2022/01/04 06:44:58;;;;;;;;;6.00;6.00;;;;;9.07;78.20;99625.06;4998060;28;45388;-78
2022/01/04 06:47:23;;;;;;;;;4.00;3.00;;;;;9.14;78.48;99656.81;4992770;28;45293;-77
2022/01/04 06:49:49;;;;;;;;;3.50;3.00;;;;;8.87;78.22;99602.00;4997152;28;47441;-76
2022/01/04 06:52:14;;;;;;;;;5.00;5.00;;;;;9.10;78.80;99654.09;4992927;28;45270;-77
2022/01/04 06:54:39;;;;;;;;;5.00;5.00;;;;;8.92;78.41;99645.09;5000427;28;45395;-77
2022/01/04 06:57:05;;;;;;;;;9.75;6.75;;;;;9.15;77.62;99689.31;5002076;28;46504;-77
2022/01/04 06:59:30;;;;;;;;;4.50;3.25;;;;;9.05;78.21;99685.69;4997962;28;46926;-77
2022/01/04 07:01:56;;;;;;;;;4.00;4.00;;;;;8.95;78.26;99681.16;5008140;28;45750;-77
2022/01/04 07:04:21;;;;;;;;;5.00;4.25;;;;;8.99;78.74;99688.25;4999087;28;45325;-76
2022/01/04 07:06:47;;;;;;;;;9.25;8.00;;;;;8.95;78.04;99689.94;5002309;28;46965;-78
2022/01/04 07:09:12;;;;;;;;;8.75;6.75;;;;;8.88;79.11;99664.41;4997619;28;47031;-77
2022/01/04 07:11:38;;;;;;;;;7.50;5.00;;;;;8.84;78.65;99649.41;4994508;28;45382;-77
2022/01/04 07:14:04;;;;;;;;;5.00;5.00;;;;;9.10;79.09;99699.81;4997702;28;45380;-77
2022/01/04 07:16:29;;;;;;;;;4.50;4.50;;;;;9.08;78.55;99713.84;4995465;28;45454;-77
2022/01/04 07:18:55;;;;;;;;;8.75;8.75;;;;;8.87;79.45;99672.28;4997413;28;47013;-77
2022/01/04 07:21:21;;;;;;;;;20.00;17.00;;;;;9.05;78.80;99706.78;4996691;28;45329;-77
2022/01/04 07:23:48;;;;;;;;;9.75;7.50;;;;;9.05;79.38;99698.00;4997728;28;45288;-77
2022/01/04 07:26:14;;;;;;;;;7.00;5.25;;;;;9.07;78.56;99701.50;4995415;28;45579;-76
2022/01/04 07:28:45;;;;;;;;;8.25;8.25;;;;;9.00;79.22;99683.88;4992083;28;45671;-77
2022/01/04 07:31:12;;;;;;;;;9.25;7.50;;;;;9.08;79.09;99692.75;4985786;28;45612;-76
2022/01/04 07:33:38;;;;;;;;;12.75;10.75;;;;;9.05;79.38;99703.28;4992489;28;45379;-77
2022/01/04 07:36:06;;;;;;;;;4.00;3.00;;;;;8.82;78.83;99669.59;4998075;28;47403;-76
2022/01/04 07:38:31;;;;;;;;;1.00;1.00;;;;;8.95;79.49;99689.94;4992283;28;46150;-75
2022/01/04 07:40:57;;;;;;;;;1.00;1.00;;;;;8.91;78.33;99690.78;4994772;28;45308;-76
2022/01/04 07:43:22;;;;;;;;;1.75;1.75;;;;;9.00;78.96;99704.94;4997786;28;45440;-76
2022/01/04 07:45:47;;;;;;;;;1.00;1.00;;;;;8.66;78.43;99651.81;5010050;28;45617;-76
2022/01/04 07:48:13;;;;;;;;;2.00;2.00;;;;;9.00;79.46;99710.22;4996128;28;46326;-76
2022/01/04 07:50:42;;;;;;;;;3.00;1.00;;;;;9.00;78.44;99718.13;4996078;28;45398;-77
2022/01/04 07:53:07;;;;;;;;;1.25;0.75;;;;;9.05;79.16;99729.63;4995754;28;45395;-76
2022/01/04 07:55:33;;;;;;;;;2.50;2.50;;;;;8.97;78.26;99718.97;4983584;28;45625;-79
2022/01/04 07:57:59;;;;;;;;;1.25;1.25;;;;;9.06;78.81;99726.13;4998374;28;48533;-76
2022/01/04 08:00:25;;;;;;;;;1.00;1.00;;;;;9.14;78.85;99743.78;5011764;28;45404;-76
2022/01/04 08:02:51;;;;;;;;;0.50;0.00;;;;;9.17;78.91;99761.41;4997088;28;45455;-76
2022/01/04 08:05:17;;;;;;;;;2.00;2.00;;;;;8.80;78.37;99708.22;4999617;28;45809;-76
2022/01/04 08:07:42;;;;;;;;;3.00;2.00;;;;;9.17;78.31;99785.13;4993820;28;47449;-76
2022/01/04 08:10:09;;;;;;;;;3.00;2.00;;;;;9.10;78.58;99781.53;5001204;28;45242;-75
2022/01/04 08:12:35;;;;;;;;;4.25;4.00;;;;;9.03;78.86;99760.34;4997421;28;45281;-76
2022/01/04 08:15:01;;;;;;;;;2.00;2.00;;;;;9.03;78.55;99784.94;5001758;28;45226;-76
2022/01/04 08:17:26;;;;;;;;;2.00;2.00;;;;;8.98;78.83;99776.09;4995591;28;46667;-76
2022/01/04 08:19:52;;;;;;;;;3.75;2.00;;;;;8.84;78.06;99773.25;5001560;28;45309;-76
2022/01/04 08:22:17;;;;;;;;;3.75;3.75;;;;;9.03;79.18;99798.13;4998335;28;45489;-76
2022/01/04 08:24:43;;;;;;;;;5.50;5.50;;;;;9.02;78.99;99780.56;5000415;28;46501;-76
2022/01/04 08:27:09;;;;;;;;;6.25;5.50;;;;;8.94;79.19;99759.34;4991253;28;45541;-76
2022/01/04 08:29:34;;;;;;;;;8.75;6.75;;;;;9.05;78.71;99771.81;5000265;28;46261;-76
2022/01/04 08:32:00;;;;;;;;;7.00;7.00;;;;;9.17;78.61;99791.28;4996854;28;45475;-76
2022/01/04 08:34:25;;;;;;;;;10.00;9.75;;;;;8.91;79.04;99764.59;5011265;28;46416;-76
2022/01/04 08:36:51;;;;;;;;;10.50;8.75;;;;;9.13;78.68;99801.75;4993530;28;46780;-77
2022/01/04 08:39:16;;;;;;;;;11.50;10.50;;;;;9.11;79.23;99804.41;4999969;28;45282;-76
2022/01/04 08:41:43;;;;;;;;;11.25;9.75;;;;;8.99;79.39;99772.59;4996451;28;45499;-76
2022/01/04 08:44:09;;;;;;;;;10.25;9.00;;;;;9.10;79.31;99800.00;5009586;28;47491;-76
2022/01/04 08:46:36;;;;;;;;;10.00;10.00;;;;;9.28;79.16;99816.94;4990241;28;47074;-77
2022/01/04 08:49:03;;;;;;;;;9.75;8.00;;;;;9.26;79.28;99814.25;5032537;28;45298;-76
2022/01/04 08:51:28;;;;;;;;;9.00;9.00;;;;;9.25;79.03;99825.69;4993614;28;45358;-77
2022/01/04 08:53:54;;;;;;;;;10.00;10.00;;;;;9.01;79.16;99788.41;5001030;28;45367;-76
2022/01/04 08:56:19;;;;;;;;;10.50;7.50;;;;;9.00;77.96;99781.38;4994636;28;45398;-76
2022/01/04 08:58:45;;;;;;;;;9.00;8.25;;;;;9.01;78.94;99785.78;4999644;28;45417;-76
2022/01/04 09:01:10;;;;;;;;;11.00;9.25;;;;;9.29;78.87;99829.25;4995065;28;45320;-77
2022/01/04 09:03:35;;;;;;;;;5.00;5.00;;;;;9.07;79.04;99797.28;5015906;28;46833;-76
2022/01/04 09:06:01;;;;;;;;;4.50;4.50;;;;;9.11;77.99;99812.31;4995810;28;47044;-76
2022/01/04 09:08:26;;;;;;;;;5.25;4.25;;;;;9.17;78.63;99820.28;5011456;28;45412;-76
2022/01/04 09:10:52;;;;;;;;;6.00;6.00;;;;;8.48;78.38;99705.97;4996947;28;45365;-76
2022/01/04 09:13:20;;;;;;;;;9.00;5.00;;;;;8.97;78.80;99792.78;4995598;28;47312;-76
2022/01/04 09:18:42;;;;;;;;;5.25;4.00;;;;;9.30;78.08;99855.66;4997622;28;45335;-77
2022/01/04 09:18:46;;;;;;;;;4.50;4.50;;;;;9.06;78.61;99807.84;4998448;28;45304;-76
2022/01/04 09:21:18;;;;;;;;;4.00;4.00;;;;;9.16;78.26;99822.94;4996652;28;45426;-76
2022/01/04 09:23:45;;;;;;;;;6.50;5.00;;;;;9.31;78.74;99836.31;4999944;28;45395;-76
2022/01/04 09:26:12;;;;;;;;;2.75;2.00;;;;;9.33;78.29;99831.94;4998003;28;45530;-76
2022/01/04 09:28:38;;;;;;;;;2.00;2.00;;;;;9.28;77.83;99817.81;4993104;28;45302;-76
2022/01/04 09:31:04;;;;;;;;;3.00;2.00;;;;;9.31;77.86;99811.69;4998773;28;45345;-77
2022/01/04 09:33:29;;;;;;;;;4.75;3.00;;;;;9.21;78.12;99788.69;4993135;28;45724;-76
2022/01/04 09:35:55;;;;;;;;;2.00;2.00;;;;;9.25;78.08;99807.22;4993672;28;45230;-76
2022/01/04 09:38:20;;;;;;;;;4.00;3.00;;;;;9.21;78.42;99805.41;4998865;28;45230;-76
2022/01/04 09:40:48;;;;;;;;;2.00;2.00;;;;;9.33;78.06;99828.44;4997758;28;45242;-76
2022/01/04 09:43:15;;;;;;;;;2.00;1.00;;;;;9.35;78.15;99829.31;4995386;28;45644;-76
2022/01/04 09:45:40;;;;;;;;;4.00;2.25;;;;;9.15;77.85;99800.03;4997654;28;45397;-76
2022/01/04 09:48:06;;;;;;;;;1.00;1.00;;;;;9.21;78.53;99815.94;4996514;28;45469;-76
2022/01/04 09:50:33;;;;;;;;;4.00;2.00;;;;;9.18;78.14;99811.50;4998475;28;45369;-76
2022/01/04 09:53:00;;;;;;;;;2.25;1.25;;;;;9.29;78.50;99834.50;4995782;28;45516;-76
2022/01/04 09:55:25;;;;;;;;;2.75;2.75;;;;;9.38;78.42;99854.00;4996777;28;47070;-76
2022/01/04 09:57:51;;;;;;;;;2.00;2.00;;;;;9.15;78.53;99815.88;5010959;28;45238;-76
2022/01/04 10:00:17;;;;;;;;;3.00;1.75;;;;;9.38;77.83;99851.38;4998930;28;45442;-76
2022/01/04 10:02:45;;;;;;;;;3.75;2.75;;;;;9.44;78.33;99861.13;4998645;28;46021;-76
2022/01/04 10:05:22;;;;;;;;;1.50;1.50;;;;;9.32;77.89;99843.34;4998813;28;45595;-76
2022/01/04 10:08:03;;;;;;;;;1.50;1.50;;;;;9.45;77.14;99859.34;5002897;28;45283;-76
2022/01/04 10:10:28;;;;;;;;;3.00;3.00;;;;;9.49;78.14;99864.69;4998347;28;45446;-75
2022/01/04 10:13:01;;;;;;;;;3.25;3.25;;;;;9.51;77.74;99872.63;4992711;28;45458;-76
2022/01/04 10:15:42;;;;;;;;;3.00;3.00;;;;;9.55;77.87;99877.97;4996936;28;47614;-76
2022/01/04 10:18:14;;;;;;;;;4.25;2.50;;;;;9.56;77.53;99885.00;5005497;28;45402;-75
2022/01/04 10:21:09;;;;;;;;;4.25;2.75;;;;;9.56;77.19;99886.78;4995975;28;45642;-76
2022/01/04 10:23:45;;;;;;;;;5.25;4.00;;;;;9.53;77.70;99890.25;4990602;28;45456;-76
2022/01/04 10:26:11;;;;;;;;;6.25;6.25;;;;;9.39;78.22;99862.78;5000561;28;47423;-77
2022/01/04 10:28:41;;;;;;;;;5.25;5.25;;;;;9.24;78.09;99821.25;4999354;28;45266;-77
2022/01/04 10:31:09;;;;;;;;;2.75;2.75;;;;;9.49;77.87;99843.56;4993354;28;45235;-76
2022/01/04 10:33:35;;;;;;;;;4.00;3.00;;;;;9.27;78.01;99792.31;4998541;28;46589;-76
2022/01/04 10:36:11;;;;;;;;;4.00;4.00;;;;;9.63;78.31;99852.59;4992037;28;45343;-76
2022/01/04 10:38:39;;;;;;;;;4.25;3.00;;;;;9.69;77.82;99859.69;4994075;28;45391;-76
2022/01/04 10:41:06;;;;;;;;;3.25;3.00;;;;;9.76;77.39;99863.28;4992991;28;45285;-76
2022/01/04 10:43:50;;;;;;;;;2.25;2.25;;;;;9.73;77.38;99857.97;4999452;28;45174;-76
2022/01/04 10:46:29;;;;;;;;;2.50;2.50;;;;;9.78;77.58;99870.34;4993243;28;45606;-76
2022/01/04 10:48:55;;;;;;;;;3.50;2.75;;;;;9.46;77.00;99795.19;4999180;28;45388;-76
2022/01/04 10:51:22;;;;;;;;;2.00;2.00;;;;;9.46;77.36;99798.69;4993333;28;45499;-76
2022/01/04 10:53:57;;;;;;;;;4.00;1.25;;;;;9.77;77.14;99865.03;4999393;28;45328;-76
2022/01/04 10:56:26;;;;;;;;;1.00;1.00;;;;;9.63;77.10;99849.94;4994491;28;45474;-76
2022/01/04 10:58:53;;;;;;;;;2.00;1.00;;;;;9.56;77.60;99828.72;4998080;28;45207;-76
2022/01/04 11:01:22;;;;;;;;;2.00;2.00;;;;;9.61;76.79;99837.59;4995641;28;45522;-76
2022/01/04 11:03:54;;;;;;;;;3.75;2.00;;;;;9.63;76.79;99843.75;4997792;28;46506;-76
2022/01/04 11:06:27;;;;;;;;;1.00;1.00;;;;;9.79;77.17;99858.91;4991984;28;47290;-76
2022/01/04 11:08:52;;;;;;;;;4.25;2.00;;;;;9.52;76.58;99819.00;4994272;28;45314;-76
2022/01/04 11:11:18;;;;;;;;;1.00;1.00;;;;;9.76;77.84;99858.88;4996247;28;45296;-76
2022/01/04 11:13:43;;;;;;;;;2.00;2.00;;;;;9.64;76.86;99819.16;4996729;28;45569;-77
2022/01/04 11:16:09;;;;;;;;;3.50;2.00;;;;;9.85;77.13;99850.19;4995723;28;45480;-76
2022/01/04 11:18:40;;;;;;;;;1.00;1.00;;;;;9.81;77.36;99841.34;4997744;28;45262;-77
2022/01/04 11:21:11;;;;;;;;;2.00;2.00;;;;;9.47;76.81;99782.03;4997094;28;45416;-76
2022/01/04 11:23:37;;;;;;;;;7.25;3.00;;;;;9.89;76.95;99859.94;4990863;28;45330;-77
2022/01/04 11:26:04;;;;;;;;;1.75;1.75;;;;;9.75;77.12;99840.41;4997111;28;45378;-76
2022/01/04 11:28:29;;;;;;;;;1.50;1.25;;;;;9.70;77.50;99845.63;4991266;28;45331;-77
2022/01/04 11:31:13;;;;;;;;;2.00;0.50;;;;;9.92;77.40;99875.81;4997454;28;45312;-77
2022/01/04 11:33:46;;;;;;;;;1.00;1.00;;;;;9.93;76.99;99860.84;4992703;28;45307;-76
2022/01/04 11:36:14;;;;;;;;;2.00;2.00;;;;;9.85;77.20;99840.50;4993184;28;45367;-77
2022/01/04 11:38:39;;;;;;;;;2.00;2.00;;;;;9.80;76.89;99820.22;5000984;28;45300;-76
2022/01/04 11:41:05;;;;;;;;;2.00;2.00;;;;;9.98;77.21;99846.81;4999620;28;45233;-76